METAR Data
IDs: Format: Raw Decoded Include TAF

Data at: 2207 UTC 10 May 2021

KCCU 102155Z AUTO 21011G29KT 1 1/4SM HZ SCT029 BKN038 OVC048 M02/M07 A3011 RMK AO2 VIS 1/2V5
KCCU 102135Z AUTO 23023G42KT 170V240 1/4SM -SN BKN008 BKN014 OVC024 M02/M07 A3010 RMK AO2
KCCU 102115Z AUTO 25023G31KT 3/4SM -SN BKN003 OVC008 M02/M05 A3009 RMK AO2
KCCU 102055Z AUTO 24021G30KT 200V260 1/2SM -SN OVC001 M02/M05 A3010 RMK AO2
KCCU 102035Z AUTO 29007KT 3/4SM -SN OVC001 M02/M05 A3010 RMK AO2
KCCU 102015Z AUTO 00000KT 1/2SM -SN OVC001 M02/M04 A3010 RMK AO2
KCCU 101955Z AUTO 28012KT M1/4SM -SN OVC001 M01/M04 A3009 RMK AO2 P0003
KCCU 101935Z AUTO 29008G14KT M1/4SM -SN OVC001 M02/M04 A3010 RMK AO2 P0001
KCCU 101915Z AUTO 28005KT 1/2SM -SN OVC001 M01/M03 A3010 RMK AO2 VIS 1/4V2 1/2 P0001
KCCU 101855Z AUTO 00000KT 1/4SM -SN OVC001 M02/M04 A3010 RMK AO2
KCCU 101835Z AUTO 29004KT M1/4SM SN OVC001 M02/M04 A3010 RMK AO2
KCCU 101815Z AUTO 30006KT M1/4SM SN OVC001 M02/M05 A3010 RMK AO2
KCCU 101755Z AUTO 28009KT M1/4SM -SN OVC001 M02/M05 A3010 RMK AO2
KCCU 101735Z AUTO 30009KT M1/4SM SN OVC001 M02/M04 A3010 RMK AO2
KCCU 101715Z AUTO 30012KT M1/4SM SN OVC001 M02/M05 A3009 RMK AO2
KCCU 101655Z AUTO 30011KT M1/4SM SN OVC001 M02/M05 A3008 RMK AO2
KCCU 101635Z AUTO 29011KT 3/4SM -SN OVC003 M02/M05 A3008 RMK AO2
KCCU 101615Z AUTO 00000KT 1/4SM -SN OVC001 M02/M05 A3008 RMK AO2
KCCU 101555Z AUTO 31006KT M1/4SM -SN OVC001 M02/M05 A3008 RMK AO2
KCCU 101535Z AUTO 29007KT 1/2SM -SN OVC001 M02/M05 A3010 RMK AO2
KCCU 101515Z AUTO 27008KT 1/2SM -SN BKN001 OVC006 M02/M05 A3010 RMK AO2
KCCU 101455Z AUTO 25004KT 1 1/4SM -SN SCT005 BKN013 OVC020 M01/M05 A3009 RMK AO2
KCCU 101435Z AUTO 18007KT 5SM -SN SCT013 BKN021 OVC030 M01/M06 A3010 RMK AO2
KCCU 101415Z AUTO 18010G16KT 10SM -SN SCT019 BKN032 OVC040 M01/M06 A3009 RMK AO2
KCCU 101355Z AUTO 18017KT 10SM BKN027 OVC035 M01/M06 A3009 RMK AO2
KCCU 101335Z AUTO 17018G21KT 10SM BKN028 OVC036 M02/M07 A3008 RMK AO2
KCCU 101315Z AUTO 17015G20KT 10SM SCT031 BKN043 BKN080 M02/M07 A3008 RMK AO2
KCCU 101255Z AUTO 17017KT 10SM SCT033 SCT040 SCT050 M02/M07 A3007 RMK AO2
KCCU 101235Z AUTO 17016KT 10SM SCT100 SCT120 M02/M07 A3007 RMK AO2
KCCU 101215Z AUTO 17014G18KT 10SM SCT007 SCT019 BKN120 M02/M07 A3008 RMK AO2
KCCU 101155Z AUTO 17017KT 7SM SCT007 SCT019 SCT046 M02/M06 A3008 RMK AO2
KCCU 101135Z AUTO 16016G22KT 10SM SCT042 SCT050 SCT060 M02/M07 A3008 RMK AO2
KCCU 101115Z AUTO 17018G21KT 10SM SCT028 SCT048 BKN110 M02/M07 A3009 RMK AO2
KCCU 101055Z AUTO 17014KT 4SM -SN BKN028 BKN048 OVC110 M02/M06 A3009 RMK AO2
KCCU 101035Z AUTO 16019KT 10SM SCT004 SCT039 BKN110 M03/M06 A3009 RMK AO2
KCCU 101015Z AUTO 16015G19KT 4SM -SN SCT002 BKN009 BKN018 M03/M06 A3010 RMK AO2
KCCU 100955Z AUTO 15015KT 2 1/2SM -SN SCT004 BKN010 OVC019 M03/M06 A3010 RMK AO2
KCCU 100935Z AUTO 16016KT 2SM -SN BKN008 OVC011 M03/M06 A3011 RMK AO2
KCCU 100915Z AUTO 16017KT 2 1/2SM -SN BKN008 BKN019 OVC035 M02/M06 A3011 RMK AO2
KCCU 100855Z AUTO 15012G19KT 2 1/2SM -SN BKN008 BKN019 OVC047 M02/M06 A3011 RMK AO2
KCCU 100835Z AUTO 17012KT 10SM SCT027 BKN050 OVC110 M02/M07 A3012 RMK AO2
KCCU 100815Z AUTO 18014KT 10SM SCT090 BKN110 M02/M06 A3012 RMK AO2
KCCU 100755Z AUTO 17013KT 10SM SCT070 SCT110 M03/M06 A3012 RMK AO2
KCCU 100735Z AUTO 16016KT 5SM HZ SCT010 SCT033 BKN046 M03/M06 A3012 RMK AO2
KCCU 100715Z AUTO 16013G18KT 3SM -SN SCT007 BKN014 OVC036 M02/M06 A3014 RMK AO2
KCCU 100655Z AUTO 18015G21KT 2 1/2SM -SN SCT007 BKN025 OVC060 M02/M07 A3015 RMK AO2
KCCU 100635Z AUTO 18012KT 10SM OVC060 M02/M07 A3015 RMK AO2
KCCU 100615Z AUTO 18012KT 10SM SCT065 SCT075 OVC090 M02/M08 A3015 RMK AO2
KCCU 100555Z AUTO 23005KT 10SM SCT035 SCT060 OVC090 M02/M08 A3015 RMK AO2
KCCU 100535Z AUTO 17008KT 150V220 10SM SCT035 BKN060 OVC070 M02/M07 A3016 RMK AO2
KCCU 100515Z AUTO 17010KT 10SM -SN SCT045 BKN060 OVC070 M02/M08 A3016 RMK AO2
KCCU 100455Z AUTO 18011G14KT 10SM SCT060 SCT080 OVC095 M01/M08 A3017 RMK AO2
KCCU 100435Z AUTO 16008KT 10SM BKN100 M02/M08 A3016 RMK AO2
KCCU 100415Z AUTO 23006KT 10SM CLR M02/M08 A3017 RMK AO2
KCCU 100355Z AUTO 00000KT 10SM SCT095 SCT120 M02/M07 A3017 RMK AO2
KCCU 100335Z AUTO 24005KT 10SM SCT027 SCT050 OVC110 M02/M08 A3017 RMK AO2
KCCU 100315Z AUTO 24006KT 10SM SCT029 BKN042 OVC110 M02/M08 A3017 RMK AO2
KCCU 100255Z AUTO 22007KT 170V240 10SM SCT031 BKN040 BKN055 M01/M08 A3017 RMK AO2
KCCU 100235Z AUTO 22008KT 170V240 10SM BKN034 OVC048 M01/M08 A3016 RMK AO2
KCCU 100215Z AUTO 25006KT 10SM SCT028 OVC036 M01/M08 A3015 RMK AO2
KCCU 100155Z AUTO 22005KT 10SM SCT029 OVC037 M01/M08 A3015 RMK AO2
KCCU 100135Z AUTO 24008G14KT 10SM SCT029 BKN036 OVC044 M01/M08 A3015 RMK AO2
KCCU 100115Z AUTO 25007G15KT 10SM SCT036 BKN044 OVC050 00/M07 A3015 RMK AO2
KCCU 100055Z AUTO 26011KT 10SM SCT014 BKN036 OVC049 00/M07 A3014 RMK AO2
KCCU 100035Z AUTO 26016G21KT 5SM -SN SCT016 BKN027 OVC035 00/M07 A3014 RMK AO2
KCCU 100015Z AUTO 26015G22KT 10SM SCT027 BKN032 OVC040 00/M08 A3013 RMK AO2
KCCU 092355Z AUTO 24011G19KT 210V270 10SM SCT021 BKN036 OVC042 01/M07 A3014 RMK AO2
KCCU 092335Z AUTO 26014G19KT 10SM -SN SCT021 BKN033 OVC070 00/M07 A3013 RMK AO2
KCCU 092315Z AUTO 26016G23KT 10SM SCT035 SCT047 BKN060 01/M07 A3012 RMK AO2
KCCU 092255Z AUTO 25014G21KT 10SM SCT036 BKN047 OVC055 01/M06 A3013 RMK AO2
KCCU 092235Z AUTO 26016G23KT 210V290 4SM HZ SCT007 BKN021 OVC055 00/M06 A3012 RMK AO2
KCCU 092215Z AUTO 27016G19KT 10SM BKN021 BKN029 OVC034 00/M06 A3012 RMK AO2
KCCU 092155Z AUTO 30014G19KT 10SM SCT029 OVC034 00/M06 A3012 RMK AO2
KCCU 092135Z AUTO 25009G16KT 10SM SCT009 SCT015 OVC031 01/M07 A3012 RMK AO2
KCCU 092115Z AUTO 28009KT 1 3/4SM -SN BKN009 BKN014 OVC023 M01/M07 A3012 RMK AO2
KCCU 092055Z AUTO 27013G20KT 10SM SCT021 SCT027 OVC035 01/M08 A3012 RMK AO2
KCCU 092035Z AUTO 27010G14KT 10SM SCT026 BKN035 OVC041 01/M08 A3012 RMK AO2
KCCU 092015Z AUTO 28010KT 10SM SCT025 SCT032 OVC043 01/M10 A3013 RMK AO2
KCCU 091955Z AUTO 28010G14KT 240V300 10SM SCT034 BKN043 OVC049 01/M10 A3012 RMK AO2
KCCU 091935Z AUTO 27012G27KT 7SM SCT040 OVC048 01/M11 A3013 RMK AO2
KCCU 091915Z AUTO 26023G28KT 10SM SCT042 BKN048 OVC050 01/M12 A3012 RMK AO2
KCCU 091855Z AUTO 25012G20KT 10SM SCT047 BKN050 OVC080 01/M12 A3013 RMK AO2
KCCU 091835Z AUTO 24014G20KT 10SM SCT043 BKN050 OVC080 01/M12 A3014 RMK AO2
KCCU 091815Z AUTO 25013G23KT 10SM BKN044 OVC050 01/M12 A3014 RMK AO2
KCCU 091755Z AUTO 23012G19KT 10SM SCT042 BKN050 OVC065 01/M13 A3015 RMK AO2
KCCU 091735Z AUTO 23015G21KT 10SM SCT045 BKN075 OVC090 01/M13 A3014 RMK AO2
KCCU 091715Z AUTO 23010KT 210V290 10SM SCT055 SCT080 OVC090 01/M12 A3015 RMK AO2
KCCU 091655Z AUTO 25010G19KT 10SM SCT070 BKN100 BKN120 00/M12 A3015 RMK AO2
KCCU 091635Z AUTO 25015G21KT 10SM BKN070 OVC080 00/M12 A3014 RMK AO2
KCCU 091615Z AUTO 25014G19KT 10SM BKN080 00/M12 A3014 RMK AO2
KCCU 091555Z AUTO 24007KT 10SM SCT080 M01/M11 A3014 RMK AO2
KCCU 091535Z AUTO 19004KT 10SM CLR M01/M11 A3014 RMK AO2
KCCU 091515Z AUTO 17006KT 10SM CLR M01/M10 A3014 RMK AO2
KCCU 091455Z AUTO 00000KT 10SM CLR M02/M10 A3015 RMK AO2
KCCU 091435Z AUTO 00000KT 10SM CLR M02/M11 A3015 RMK AO2
KCCU 091415Z AUTO 00000KT 10SM CLR M03/M10 A3015 RMK AO2
KCCU 091355Z AUTO 00000KT 10SM CLR M04/M12 A3015 RMK AO2
KCCU 091335Z AUTO 27004KT 10SM CLR M05/M13 A3015 RMK AO2
KCCU 091315Z AUTO 28003KT 10SM SCT023 SCT029 M05/M13 A3014 RMK AO2
KCCU 091255Z AUTO 00000KT 10SM BKN023 BKN029 M04/M12 A3013 RMK AO2
KCCU 091235Z AUTO 00000KT 10SM SCT023 SCT120 M05/M13 A3013 RMK AO2
KCCU 091215Z AUTO 27004KT 10SM SCT120 M05/M13 A3012 RMK AO2
KCCU 091155Z AUTO 29006KT 10SM CLR M05/M13 A3012 RMK AO2
KCCU 091135Z AUTO 31005KT 10SM CLR M05/M13 A3012 RMK AO2
KCCU 091115Z AUTO 31006KT 10SM CLR M05/M12 A3012 RMK AO2
KCCU 091055Z AUTO 24003KT 10SM CLR M04/M11 A3012 RMK AO2
KCCU 091035Z AUTO 17006KT 10SM CLR M03/M11 A3012 RMK AO2
KCCU 091015Z AUTO 18010KT 10SM CLR M02/M10 A3012 RMK AO2